Yawata — JG5592 — position and weather

sailwx.info

Track history (hours):
 
Tides and Currents Weather Stations Pressure Air Temp Water Temp Dewpoint Dewpoint Depression Visibility Wind Speed Wind Dir Waves Ship Positions

Yawata

Last reported at 2017-Oct-23 00:38 UTC. Time now 2017-Oct-23 06:13 UTC.
Position N 35°38' E 139°46'.

Length 40 m; draft 2.8 m.

Type: Tug. MMSI: 431100843.

Date/timePositionNaut miles runAvg speedWind from/ knotsBaromVisibWave heightAir tempDewpointWater temp
2017-Oct-23 00:38N 35°38' E 139°46'0 1.0
2017-Oct-23 00:30N 35°38' E 139°46'0 0.0
2017-Oct-22 23:57N 35°38' E 139°46'0 0.0
2017-Oct-22 23:19N 35°38' E 139°46'0 0.0
2017-Oct-22 22:59N 35°38' E 139°46'0 0.2
2017-Oct-22 22:12N 35°38' E 139°46'0 0.1
2017-Oct-22 21:39N 35°38' E 139°46'0 1.9
2017-Oct-22 21:30N 35°38' E 139°46'0 0.6
2017-Oct-22 21:00N 35°39' E 139°46'3 0.1
2017-Oct-21 22:02N 35°36' E 139°47'1 6.6
2017-Oct-21 21:56N 35°35' E 139°47'1 2.0
2017-Oct-21 21:22N 35°34' E 139°48'2 4.5
2017-Oct-21 20:50N 35°36' E 139°46'0 0.5
2017-Oct-21 20:06N 35°36' E 139°46'2 0.1
2017-Oct-20 18:19N 35°38' E 139°46'2 5.7
2017-Oct-20 17:59N 35°36' E 139°47'0 0.8
2017-Oct-20 17:29N 35°36' E 139°47'1 0.5
2017-Oct-20 16:12N 35°35' E 139°47'0 0.0
2017-Oct-20 15:54N 35°35' E 139°47'0 0.0
2017-Oct-20 15:26N 35°35' E 139°47'0 0.0
2017-Oct-20 14:51N 35°35' E 139°47'0 0.0
2017-Oct-20 14:30N 35°35' E 139°47'0 0.0
2017-Oct-20 13:15N 35°35' E 139°47'1 4.0
2017-Oct-20 13:00N 35°36' E 139°47'2 3.2
2017-Oct-20 12:30N 35°35' E 139°48'1 2.3
2017-Oct-20 12:00N 35°35' E 139°47'0 0.0
2017-Oct-20 11:30N 35°35' E 139°47'1 0.7
2017-Oct-20 10:39N 35°35' E 139°47'1 7.7
2017-Oct-20 10:30N 35°35' E 139°48'2 3.1
2017-Oct-20 10:00N 35°35' E 139°47'0 0.0
2017-Oct-20 09:30N 35°35' E 139°47'1 1.7
2017-Oct-20 08:51N 35°36' E 139°46'2 0.5
2017-Oct-20 04:22N 35°39' E 139°46'0 0.2
2017-Oct-20 03:45N 35°39' E 139°46'1 3.5
2017-Oct-20 03:30N 35°38' E 139°46'3 6.6
2017-Oct-20 03:00N 35°35' E 139°48'2 0.2
2017-Oct-19 12:56N 35°37' E 139°46'1 1.8
2017-Oct-19 12:30N 35°37' E 139°47'1 1.7
2017-Oct-19 11:59N 35°36' E 139°47'1 2.3
2017-Oct-19 11:25N 35°34' E 139°48'1 3.0
2017-Oct-19 10:59N 35°35' E 139°47'0 0.0
2017-Oct-19 10:30N 35°35' E 139°47'0 0.0
2017-Oct-19 09:59N 35°35' E 139°47'0 0.0
2017-Oct-19 09:30N 35°35' E 139°47'1 2.3
2017-Oct-19 09:00N 35°36' E 139°47'2 0.1
2017-Oct-18 11:01N 35°38' E 139°45'0 9.5
2017-Oct-18 10:59N 35°38' E 139°46'2 0.8
2017-Oct-18 08:22N 35°37' E 139°48'0 0.1
2017-Oct-18 07:51N 35°37' E 139°48'3 4.6
2017-Oct-18 07:18N 35°38' E 139°46'1 0.0
2017-Oct-17 10:40N 35°38' E 139°46'2 2.0
2017-Oct-17 09:52N 35°36' E 139°46'1 2.6
2017-Oct-17 09:27N 35°35' E 139°47'1 1.9
2017-Oct-17 08:45N 35°36' E 139°47'0 0.2
2017-Oct-17 08:30N 35°37' E 139°47'2 0.2
2017-Oct-16 23:04N 35°38' E 139°46'110.8
2017-Oct-16 22:56N 35°37' E 139°46'1 1.5
2017-Oct-16 22:26N 35°36' E 139°47'2 4.2
2017-Oct-16 22:00N 35°35' E 139°48'1 2.3
2017-Oct-16 21:30N 35°36' E 139°47'3 0.1
2017-Oct-14 23:22N 35°38' E 139°46'2 4.6
2017-Oct-14 23:00N 35°37' E 139°47'1 1.3
2017-Oct-14 22:29N 35°36' E 139°47'4 8.1
2017-Oct-14 22:00N 35°33' E 139°50'4 7.3
2017-Oct-14 21:31N 35°35' E 139°47'0 0.0
2017-Oct-14 21:01N 35°35' E 139°47'1 2.1
2017-Oct-14 20:30N 35°36' E 139°47'2 0.5
2017-Oct-14 16:35N 35°38' E 139°46'0 0.0
2017-Oct-14 16:27N 35°38' E 139°46'0 0.0
2017-Oct-13 05:55N 35°38' E 139°46'2 3.7
2017-Oct-13 05:25N 35°36' E 139°47'1 3.4
2017-Oct-13 05:00N 35°35' E 139°48'  
Track history (hours):
 
Tides and Currents Weather Stations Pressure Air Temp Water Temp Dewpoint Dewpoint Depression Visibility Wind Speed Wind Dir Waves Ship Positions

Yawata

Last reported at 2017-Oct-23 00:38 UTC. Time now 2017-Oct-23 06:13 UTC.
Position N 35°38' E 139°46'.

Length 40 m; draft 2.8 m.

Type: Tug. MMSI: 431100843.

Date/timePositionNaut miles runAvg speedWind from/ knotsBaromVisibWave heightAir tempDewpointWater temp
2017-Oct-23 00:38N 35°38' E 139°46'0 1.0
2017-Oct-23 00:30N 35°38' E 139°46'0 0.0
2017-Oct-22 23:57N 35°38' E 139°46'0 0.0
2017-Oct-22 23:19N 35°38' E 139°46'0 0.0
2017-Oct-22 22:59N 35°38' E 139°46'0 0.2
2017-Oct-22 22:12N 35°38' E 139°46'0 0.1
2017-Oct-22 21:39N 35°38' E 139°46'0 1.9
2017-Oct-22 21:30N 35°38' E 139°46'0 0.6
2017-Oct-22 21:00N 35°39' E 139°46'3 0.1
2017-Oct-21 22:02N 35°36' E 139°47'1 6.6
2017-Oct-21 21:56N 35°35' E 139°47'1 2.0
2017-Oct-21 21:22N 35°34' E 139°48'2 4.5
2017-Oct-21 20:50N 35°36' E 139°46'0 0.5
2017-Oct-21 20:06N 35°36' E 139°46'2 0.1
2017-Oct-20 18:19N 35°38' E 139°46'2 5.7
2017-Oct-20 17:59N 35°36' E 139°47'0 0.8
2017-Oct-20 17:29N 35°36' E 139°47'1 0.5
2017-Oct-20 16:12N 35°35' E 139°47'0 0.0
2017-Oct-20 15:54N 35°35' E 139°47'0 0.0
2017-Oct-20 15:26N 35°35' E 139°47'0 0.0
2017-Oct-20 14:51N 35°35' E 139°47'0 0.0
2017-Oct-20 14:30N 35°35' E 139°47'0 0.0
2017-Oct-20 13:15N 35°35' E 139°47'1 4.0
2017-Oct-20 13:00N 35°36' E 139°47'2 3.2
2017-Oct-20 12:30N 35°35' E 139°48'1 2.3
2017-Oct-20 12:00N 35°35' E 139°47'0 0.0
2017-Oct-20 11:30N 35°35' E 139°47'1 0.7
2017-Oct-20 10:39N 35°35' E 139°47'1 7.7
2017-Oct-20 10:30N 35°35' E 139°48'2 3.1
2017-Oct-20 10:00N 35°35' E 139°47'0 0.0
2017-Oct-20 09:30N 35°35' E 139°47'1 1.7
2017-Oct-20 08:51N 35°36' E 139°46'2 0.5
2017-Oct-20 04:22N 35°39' E 139°46'0 0.2
2017-Oct-20 03:45N 35°39' E 139°46'1 3.5
2017-Oct-20 03:30N 35°38' E 139°46'3 6.6
2017-Oct-20 03:00N 35°35' E 139°48'2 0.2
2017-Oct-19 12:56N 35°37' E 139°46'1 1.8
2017-Oct-19 12:30N 35°37' E 139°47'1 1.7
2017-Oct-19 11:59N 35°36' E 139°47'1 2.3
2017-Oct-19 11:25N 35°34' E 139°48'1 3.0
2017-Oct-19 10:59N 35°35' E 139°47'0 0.0
2017-Oct-19 10:30N 35°35' E 139°47'0 0.0
2017-Oct-19 09:59N 35°35' E 139°47'0 0.0
2017-Oct-19 09:30N 35°35' E 139°47'1 2.3
2017-Oct-19 09:00N 35°36' E 139°47'2 0.1
2017-Oct-18 11:01N 35°38' E 139°45'0 9.5
2017-Oct-18 10:59N 35°38' E 139°46'2 0.8
2017-Oct-18 08:22N 35°37' E 139°48'0 0.1
2017-Oct-18 07:51N 35°37' E 139°48'3 4.6
2017-Oct-18 07:18N 35°38' E 139°46'1 0.0
2017-Oct-17 10:40N 35°38' E 139°46'2 2.0
2017-Oct-17 09:52N 35°36' E 139°46'1 2.6
2017-Oct-17 09:27N 35°35' E 139°47'1 1.9
2017-Oct-17 08:45N 35°36' E 139°47'0 0.2
2017-Oct-17 08:30N 35°37' E 139°47'2 0.2
2017-Oct-16 23:04N 35°38' E 139°46'110.8
2017-Oct-16 22:56N 35°37' E 139°46'1 1.5
2017-Oct-16 22:26N 35°36' E 139°47'2 4.2
2017-Oct-16 22:00N 35°35' E 139°48'1 2.3
2017-Oct-16 21:30N 35°36' E 139°47'3 0.1
2017-Oct-14 23:22N 35°38' E 139°46'2 4.6
2017-Oct-14 23:00N 35°37' E 139°47'1 1.3
2017-Oct-14 22:29N 35°36' E 139°47'4 8.1
2017-Oct-14 22:00N 35°33' E 139°50'4 7.3
2017-Oct-14 21:31N 35°35' E 139°47'0 0.0
2017-Oct-14 21:01N 35°35' E 139°47'1 2.1
2017-Oct-14 20:30N 35°36' E 139°47'2 0.5
2017-Oct-14 16:35N 35°38' E 139°46'0 0.0
2017-Oct-14 16:27N 35°38' E 139°46'0 0.0
2017-Oct-13 05:55N 35°38' E 139°46'2 3.7
2017-Oct-13 05:25N 35°36' E 139°47'1 3.4
2017-Oct-13 05:00N 35°35' E 139°48'  

Dump ship's entire track history